Time;durP1;ratioP1;P1;durP2;ratioP2;P2;SDS_P1;SDS_P2;PMS_P1;PMS_P2;Temp;Humidity;BMP_temperature;BMP_pressure;BME280_temperature;BME280_humidity;BME280_pressure;Samples;Min_cycle;Max_cycle;Signal;HPM_P1;HPM_P2
2022/05/11 00:02:15;;;;;;;;;;;;;;;18.85;64.87;101155.75;7404256;19;1619;-61
2022/05/11 00:04:43;;;;;;;;;;;;;;;18.84;64.68;101162.09;7405678;19;1844;-55
2022/05/11 00:07:12;;;;;;;;;;;;;;;18.83;65.12;101160.38;7405321;19;1458;-61
2022/05/11 00:09:40;;;;;;;;;;;;;;;18.80;64.85;101153.47;7405739;19;1541;-61
2022/05/11 00:12:09;;;;;;;;;;;;;;;18.82;64.60;101156.00;7404623;19;1950;-54
2022/05/11 00:14:38;;;;;;;;;;;;;;;18.82;64.75;101161.34;7404432;19;1627;-55
2022/05/11 00:17:08;;;;;;;;;;;;;;;18.79;64.91;101162.47;7404586;19;1497;-55
2022/05/11 00:19:39;;;;;;;;;;;;;;;18.82;65.01;101162.22;7406192;19;1505;-62
2022/05/11 00:22:08;;;;;;;;;;;;;;;18.81;65.21;101168.53;7406166;19;1548;-55
2022/05/11 00:24:36;;;;;;;;;;;;;;;18.81;64.92;101173.91;7404539;19;1861;-61
2022/05/11 00:27:05;;;;;;;;;;;;;;;18.79;65.11;101161.59;7405879;19;1750;-61
2022/05/11 00:29:34;;;;;;;;;;;;;;;18.80;65.01;101161.50;7405377;19;1517;-55
2022/05/11 00:32:02;;;;;;;;;;;;;;;18.81;64.99;101168.53;7404292;19;1616;-55
2022/05/11 00:34:30;;;;;;;;;;;;;;;18.79;65.09;101169.63;7404396;19;1298;-55
2022/05/11 00:37:02;;;;;;;;;;;;;;;18.77;65.10;101147.47;7403240;19;1544;-55
2022/05/11 00:39:35;;;;;;;;;;;;;;;18.79;65.44;101161.59;7404448;19;1778;-62
2022/05/11 00:42:04;;;;;;;;;;;;;;;18.79;65.04;101156.22;7405352;19;1623;-61
2022/05/11 00:44:32;;;;;;;;;;;;;;;18.80;65.29;101148.09;7404479;19;1536;-55
2022/05/11 00:47:02;;;;;;;;;;;;;;;18.75;65.06;101155.63;7403551;19;1461;-55
2022/05/11 00:49:34;;;;;;;;;;;;;;;18.80;65.29;101141.88;7404142;19;1711;-61
2022/05/11 00:52:07;;;;;;;;;;;;;;;18.79;65.15;101146.38;7405959;19;1466;-55
2022/05/11 00:54:39;;;;;;;;;;;;;;;18.80;65.03;101157.94;7403424;19;1554;-56
2022/05/11 00:57:09;;;;;;;;;;;;;;;18.76;65.40;101151.97;7403062;19;1924;-55
2022/05/11 00:59:44;;;;;;;;;;;;;;;18.77;65.33;101145.63;7404960;19;1556;-55
2022/05/11 01:02:12;;;;;;;;;;;;;;;18.75;65.19;101144.91;7401489;19;1606;-55
2022/05/11 01:04:41;;;;;;;;;;;;;;;18.76;65.49;101151.97;7403885;19;1865;-61
2022/05/11 01:07:14;;;;;;;;;;;;;;;18.74;65.12;101142.34;7403992;19;1542;-61
2022/05/11 01:09:42;;;;;;;;;;;;;;;18.74;65.71;101153.06;7403995;19;1708;-54
2022/05/11 01:12:13;;;;;;;;;;;;;;;18.73;65.49;101143.34;7403047;19;1766;-61
2022/05/11 01:14:43;;;;;;;;;;;;;;;18.74;65.03;101142.34;7404267;19;1731;-55
2022/05/11 01:17:12;;;;;;;;;;;;;;;18.76;65.35;101156.47;7403280;19;1556;-54
2022/05/11 01:19:42;;;;;;;;;;;;;;;18.75;65.43;101150.25;7404127;19;1640;-61
2022/05/11 01:22:17;;;;;;;;;;;;;;;18.74;65.42;101147.69;7403163;19;1545;-55
2022/05/11 01:24:50;;;;;;;;;;;;;;;18.73;64.82;101146.84;7404747;19;1481;-55
2022/05/11 01:27:25;;;;;;;;;;;;;;;18.74;65.44;101148.56;7408485;19;1870;-55
2022/05/11 01:29:53;;;;;;;;;;;;;;;18.73;65.53;101151.38;7411281;19;1651;-55
2022/05/11 01:32:22;;;;;;;;;;;;;;;18.76;65.51;101153.78;7410048;19;1736;-62
2022/05/11 01:34:51;;;;;;;;;;;;;;;18.73;65.22;101151.38;7410811;19;1348;-54
2022/05/11 01:37:20;;;;;;;;;;;;;;;18.73;65.14;101148.69;7411793;19;1463;-55
2022/05/11 01:39:51;;;;;;;;;;;;;;;18.74;65.46;101164.66;7411048;19;1730;-61
2022/05/11 01:42:20;;;;;;;;;;;;;;;18.68;65.63;101146.38;7409863;19;1740;-62
2022/05/11 01:44:49;;;;;;;;;;;;;;;18.73;65.35;101156.72;7410759;19;1514;-54
2022/05/11 01:47:17;;;;;;;;;;;;;;;18.75;65.39;101170.84;7407973;19;1847;-62
2022/05/11 01:49:45;;;;;;;;;;;;;;;18.69;65.51;101154.28;7410511;19;1660;-55
2022/05/11 01:52:14;;;;;;;;;;;;;;;18.73;65.55;101176.31;7410575;19;1529;-55
2022/05/11 01:54:42;;;;;;;;;;;;;;;18.68;65.61;101162.44;7411119;19;1521;-54
2022/05/11 01:57:13;;;;;;;;;;;;;;;18.71;65.47;101169.41;7409012;19;1671;-55
2022/05/11 01:59:41;;;;;;;;;;;;;;;18.69;65.46;101162.31;7409740;19;1593;-61
2022/05/11 02:02:10;;;;;;;;;;;;;;;18.75;65.34;101176.22;7399195;19;1340;-61
2022/05/11 02:10:00;;;;;;;;;;;;;;;18.69;65.33;101167.69;7411313;19;1357;-55
2022/05/11 02:12:31;;;;;;;;;;;;;;;18.71;65.26;101170.25;7410084;19;1734;-54
2022/05/11 02:15:00;;;;;;;;;;;;;;;18.71;65.34;101169.41;7410661;19;1680;-55
2022/05/11 02:17:28;;;;;;;;;;;;;;;18.66;65.33;101157.22;7409801;19;1687;-59
2022/05/11 02:19:56;;;;;;;;;;;;;;;18.67;65.35;101164.28;7409717;19;1533;-55
2022/05/11 02:22:25;;;;;;;;;;;;;;;18.65;65.30;101141.28;7409913;19;1553;-60
2022/05/11 02:24:53;;;;;;;;;;;;;;;18.69;64.97;101161.47;7409900;19;1714;-62
2022/05/11 02:27:21;;;;;;;;;;;;;;;18.67;65.05;101163.44;7406705;19;1844;-62
2022/05/11 02:29:52;;;;;;;;;;;;;;;18.63;64.85;101162.81;7408978;19;1639;-55
2022/05/11 02:32:21;;;;;;;;;;;;;;;18.65;65.52;101168.91;7409544;19;1536;-62
2022/05/11 02:37:30;;;;;;;;;;;;;;;18.66;65.46;101170.63;7407726;19;1374;-55
2022/05/11 02:39:58;;;;;;;;;;;;;;;18.68;65.54;101171.34;7409597;19;1607;-62
2022/05/11 02:42:26;;;;;;;;;;;;;;;18.66;65.27;101161.72;7408442;19;1447;-54
2022/05/11 02:44:57;;;;;;;;;;;;;;;18.64;65.22;101171.69;7409026;19;1486;-61
2022/05/11 02:47:26;;;;;;;;;;;;;;;18.61;65.20;101172.81;7406150;19;1830;-56
2022/05/11 02:49:54;;;;;;;;;;;;;;;18.65;65.33;101176.94;7407656;19;1524;-55
2022/05/11 02:52:22;;;;;;;;;;;;;;;18.65;65.23;101182.28;7409142;19;1532;-62
2022/05/11 02:54:51;;;;;;;;;;;;;;;18.59;65.25;101174.75;7408692;19;1633;-56
2022/05/11 02:57:19;;;;;;;;;;;;;;;18.61;65.13;101169.28;7407916;19;1750;-55
2022/05/11 02:59:49;;;;;;;;;;;;;;;18.59;64.90;101176.59;7408400;19;1790;-55
2022/05/11 03:02:20;;;;;;;;;;;;;;;18.59;65.26;101190.81;7405935;19;1545;-61
2022/05/11 03:04:48;;;;;;;;;;;;;;;18.58;65.10;101191.81;7406773;19;1334;-61
2022/05/11 03:07:17;;;;;;;;;;;;;;;18.59;64.91;101188.16;7406064;19;1842;-55
2022/05/11 03:09:45;;;;;;;;;;;;;;;18.58;64.79;101178.44;7408180;19;1517;-55
2022/05/11 03:12:14;;;;;;;;;;;;;;;18.57;65.12;101194.63;7408017;19;1667;-55
2022/05/11 03:14:43;;;;;;;;;;;;;;;18.59;64.62;101203.38;7407830;19;1621;-62
2022/05/11 03:17:12;;;;;;;;;;;;;;;18.58;64.74;101205.22;7406050;19;1467;-62
2022/05/11 03:19:42;;;;;;;;;;;;;;;18.55;64.99;101181.34;7405821;19;1492;-55
2022/05/11 03:22:11;;;;;;;;;;;;;;;18.57;64.63;101199.97;7406876;19;1382;-55
2022/05/11 03:24:39;;;;;;;;;;;;;;;18.58;64.40;101194.50;7407681;19;1221;-61
2022/05/11 03:27:08;;;;;;;;;;;;;;;18.57;64.58;101191.94;7402783;19;1907;-55
2022/05/11 03:29:36;;;;;;;;;;;;;;;18.57;64.73;101189.25;7406555;19;1624;-61
2022/05/11 03:34:49;;;;;;;;;;;;;;;18.56;64.19;101204.47;7406148;19;1310;-55
2022/05/11 03:37:18;;;;;;;;;;;;;;;18.57;64.29;101216.03;7405746;19;1441;-55
2022/05/11 03:39:47;;;;;;;;;;;;;;;18.57;64.17;101222.25;7404315;19;1533;-54
2022/05/11 03:42:16;;;;;;;;;;;;;;;18.54;64.43;101210.91;7407573;19;1492;-55
2022/05/11 03:44:45;;;;;;;;;;;;;;;18.54;64.16;101210.91;7407600;19;1508;-61
2022/05/11 03:47:13;;;;;;;;;;;;;;;18.56;64.25;101209.84;7405771;19;1862;-54
2022/05/11 03:49:42;;;;;;;;;;;;;;;18.57;64.10;101219.56;7406382;19;1489;-55
2022/05/11 03:52:16;;;;;;;;;;;;;;;18.55;64.36;101229.53;7407049;19;1548;-55
2022/05/11 03:54:44;;;;;;;;;;;;;;;18.54;64.16;101221.63;7407036;19;1478;-56
2022/05/11 03:57:12;;;;;;;;;;;;;;;18.52;64.28;101216.38;7405731;19;1765;-59
2022/05/11 03:59:41;;;;;;;;;;;;;;;18.55;64.28;101226.03;7405574;19;1461;-61
2022/05/11 04:02:09;;;;;;;;;;;;;;;18.57;63.89;101235.63;7403505;19;1385;-54
2022/05/11 04:04:37;;;;;;;;;;;;;;;18.54;64.01;101217.13;7405091;19;1565;-62
2022/05/11 04:07:06;;;;;;;;;;;;;;;18.60;64.22;101238.09;7402927;19;1842;-60
2022/05/11 04:09:37;;;;;;;;;;;;;;;18.62;63.66;101236.13;7405688;19;1754;-55
2022/05/11 04:12:06;;;;;;;;;;;;;;;18.68;63.81;101241.00;7406373;19;1575;-57
2022/05/11 04:14:34;;;;;;;;;;;;;;;18.69;63.85;101223.09;7404947;19;1423;-55
2022/05/11 04:17:03;;;;;;;;;;;;;;;18.73;63.72;101237.09;7402815;19;1458;-62
2022/05/11 04:19:32;;;;;;;;;;;;;;;18.76;63.29;101216.28;7405188;19;1496;-55
2022/05/11 04:22:00;;;;;;;;;;;;;;;18.81;63.46;101229.34;7405890;19;1549;-61
2022/05/11 04:24:28;;;;;;;;;;;;;;;18.87;63.63;101236.88;7405799;19;1675;-61
2022/05/11 04:27:00;;;;;;;;;;;;;;;18.87;63.18;101245.75;7404601;19;1864;-55
2022/05/11 04:29:28;;;;;;;;;;;;;;;18.93;63.42;101255.13;7405704;19;1533;-55
2022/05/11 04:31:57;;;;;;;;;;;;;;;18.95;63.26;101246.97;7404752;19;1607;-61
2022/05/11 04:34:25;;;;;;;;;;;;;;;18.95;63.29;101249.66;7404369;19;1536;-61
2022/05/11 04:36:53;;;;;;;;;;;;;;;18.95;62.99;101231.75;7404631;19;1517;-61
2022/05/11 04:39:22;;;;;;;;;;;;;;;19.03;63.26;101252.56;7404904;19;1356;-55
2022/05/11 04:41:50;;;;;;;;;;;;;;;19.03;63.26;101248.06;7405318;19;1536;-61
2022/05/11 04:44:21;;;;;;;;;;;;;;;19.10;63.07;101259.16;7404837;19;1517;-60
2022/05/11 04:46:49;;;;;;;;;;;;;;;19.12;62.75;101261.69;7403146;19;1857;-61
2022/05/11 04:49:23;;;;;;;;;;;;;;;19.18;63.06;101250.47;7403804;19;1488;-61
2022/05/11 04:51:53;;;;;;;;;;;;;;;19.17;62.85;101246.09;7404913;19;1648;-61
2022/05/11 04:54:21;;;;;;;;;;;;;;;19.24;62.69;101252.66;7403144;19;1707;-55
2022/05/11 04:56:49;;;;;;;;;;;;;;;19.24;62.68;101236.59;7404261;19;1553;-61
2022/05/11 04:59:18;;;;;;;;;;;;;;;19.25;62.70;101249.00;7403642;19;1328;-55
2022/05/11 05:01:49;;;;;;;;;;;;;;;19.28;62.53;101248.75;7400877;19;1643;-55
2022/05/11 05:04:18;;;;;;;;;;;;;;;19.32;62.32;101234.13;7403165;19;1541;-61
2022/05/11 05:06:46;;;;;;;;;;;;;;;19.41;61.91;101265.53;7402773;19;1841;-61
2022/05/11 05:09:14;;;;;;;;;;;;;;;19.44;62.11;101248.34;7402958;19;1839;-59
2022/05/11 05:11:43;;;;;;;;;;;;;;;19.52;62.53;101248.56;7403870;19;1450;-63
2022/05/11 05:14:11;;;;;;;;;;;;;;;19.59;62.51;101246.22;7403622;19;1426;-62
2022/05/11 05:16:40;;;;;;;;;;;;;;;19.67;62.88;101270.56;7403458;19;1588;-63
2022/05/11 05:19:11;;;;;;;;;;;;;;;19.72;62.73;101272.94;7402432;19;1628;-66
2022/05/11 05:21:40;;;;;;;;;;;;;;;19.65;63.38;101265.31;7403633;19;1582;-60
2022/05/11 05:24:09;;;;;;;;;;;;;;;19.68;63.88;101266.94;7402077;19;1660;-60
2022/05/11 05:26:37;;;;;;;;;;;;;;;19.74;64.63;101271.81;7402413;19;1849;-55
2022/05/11 05:31:46;;;;;;;;;;;;;;;19.82;63.79;101263.13;7400671;19;1281;-55
2022/05/11 05:34:17;;;;;;;;;;;;;;;19.80;63.66;101279.34;7397783;19;1563;-54
2022/05/11 05:36:45;;;;;;;;;;;;;;;19.74;63.72;101271.81;7399361;19;1616;-61
2022/05/11 05:39:13;;;;;;;;;;;;;;;19.77;64.20;101271.53;7403267;19;1344;-56
2022/05/11 05:41:42;;;;;;;;;;;;;;;19.69;63.89;101273.97;7403082;19;1498;-60
2022/05/11 05:44:10;;;;;;;;;;;;;;;19.75;64.02;101268.13;7403353;19;1640;-58
2022/05/11 05:46:39;;;;;;;;;;;;;;;19.65;64.45;101281.41;7402490;19;1864;-58
2022/05/11 05:49:08;;;;;;;;;;;;;;;19.63;64.84;101269.97;7400898;19;1585;-67
2022/05/11 05:51:39;;;;;;;;;;;;;;;19.72;64.20;101289.03;7404440;19;1214;-58
2022/05/11 05:54:07;;;;;;;;;;;;;;;19.74;64.27;101284.38;7400889;19;1678;-59
2022/05/11 05:56:36;;;;;;;;;;;;;;;19.72;64.35;101283.66;7402213;19;1306;-56
2022/05/11 05:59:09;;;;;;;;;;;;;;;19.72;64.36;101273.78;7402875;19;1536;-56
2022/05/11 06:01:38;;;;;;;;;;;;;;;19.76;64.26;101290.47;7400000;19;1369;-56
2022/05/11 06:04:07;;;;;;;;;;;;;;;19.74;63.86;101287.91;7401965;19;1351;-56
2022/05/11 06:06:36;;;;;;;;;;;;;;;19.81;63.97;101278.34;7403542;19;1846;-64
2022/05/11 06:09:07;;;;;;;;;;;;;;;19.77;63.76;101298.38;7402641;19;1434;-63
2022/05/11 06:11:35;;;;;;;;;;;;;;;19.72;63.95;101279.13;7403345;19;1730;-62
2022/05/11 06:14:03;;;;;;;;;;;;;;;19.72;64.04;101286.34;7405820;19;1655;-57
2022/05/11 06:16:32;;;;;;;;;;;;;;;19.76;63.75;101299.38;7405863;19;1439;-58
2022/05/11 06:19:00;;;;;;;;;;;;;;;19.84;63.55;101302.25;7408944;19;1653;-64
2022/05/11 06:21:29;;;;;;;;;;;;;;;19.83;63.48;101302.38;7411477;19;1470;-62
2022/05/11 06:23:58;;;;;;;;;;;;;;;19.82;63.45;101290.81;7408807;19;1640;-56
2022/05/11 06:26:28;;;;;;;;;;;;;;;19.82;63.51;101289.97;7407984;19;1857;-63
2022/05/11 06:28:57;;;;;;;;;;;;;;;19.79;63.95;101301.78;7409103;19;1719;-56
2022/05/11 06:31:25;;;;;;;;;;;;;;;19.79;63.59;101300.94;7408949;19;1536;-56
2022/05/11 06:33:55;;;;;;;;;;;;;;;19.77;63.72;101290.31;7409393;19;1242;-62
2022/05/11 06:36:25;;;;;;;;;;;;;;;19.77;63.56;101289.47;7411054;19;1003;-62
2022/05/11 06:38:54;;;;;;;;;;;;;;;19.76;63.93;101296.69;7409644;19;1647;-63
2022/05/11 06:41:24;;;;;;;;;;;;;;;19.78;63.82;101292.03;7408745;19;1691;-63
2022/05/11 06:43:55;;;;;;;;;;;;;;;19.79;63.71;101284.84;7408036;19;1627;-56
2022/05/11 06:46:23;;;;;;;;;;;;;;;19.81;63.93;101285.56;7408514;19;1627;-63
2022/05/11 06:48:52;;;;;;;;;;;;;;;19.84;63.57;101272.75;7406413;19;1849;-56
2022/05/11 06:51:21;;;;;;;;;;;;;;;19.85;63.28;101279.78;7410327;19;1004;-56
2022/05/11 06:59:24;;;;;;;;;;;;;;;19.86;63.36;101278.81;7409513;19;1197;-63
2022/05/11 07:01:53;;;;;;;;;;;;;;;19.89;63.24;101292.97;7406216;19;1607;-62
2022/05/11 07:04:22;;;;;;;;;;;;;;;19.89;63.30;101298.34;7408513;19;1610;-63
2022/05/11 07:06:52;;;;;;;;;;;;;;;19.87;63.41;101293.09;7408940;19;1848;-62
2022/05/11 07:09:20;;;;;;;;;;;;;;;19.84;63.51;101272.75;7407435;19;1758;-56
2022/05/11 07:14:32;;;;;;;;;;;;;;;19.85;63.43;101287.84;7407770;19;1615;-62
2022/05/11 07:17:01;;;;;;;;;;;;;;;19.84;63.33;101291.53;7407423;19;1619;-63
2022/05/11 07:19:29;;;;;;;;;;;;;;;19.85;63.36;101293.22;7408263;19;1537;-63
2022/05/11 07:21:58;;;;;;;;;;;;;;;19.83;63.58;101287.13;7409437;19;945;-56
2022/05/11 07:24:26;;;;;;;;;;;;;;;19.83;63.10;101287.13;7406661;19;1659;-59
2022/05/11 07:26:55;;;;;;;;;;;;;;;19.88;63.25;101288.59;7406786;19;1860;-56
2022/05/11 07:29:23;;;;;;;;;;;;;;;19.83;63.20;101300.53;7406814;19;1576;-62
2022/05/11 07:31:54;;;;;;;;;;;;;;;19.85;63.00;101281.63;7407543;19;1493;-62
2022/05/11 07:34:22;;;;;;;;;;;;;;;19.86;63.29;101297.63;7407657;19;1481;-63
2022/05/11 07:36:54;;;;;;;;;;;;;;;19.90;63.31;101300.06;7407499;19;1628;-56
2022/05/11 07:39:23;;;;;;;;;;;;;;;19.88;63.37;101284.06;7407466;19;1349;-63
2022/05/11 07:41:51;;;;;;;;;;;;;;;19.85;63.28;101289.69;7408007;19;1517;-62
2022/05/11 07:44:20;;;;;;;;;;;;;;;19.83;63.25;101291.66;7407584;19;1623;-63
2022/05/11 07:46:48;;;;;;;;;;;;;;;19.85;63.19;101284.31;7405991;19;1789;-56
2022/05/11 07:49:20;;;;;;;;;;;;;;;19.85;63.24;101301.25;7406957;19;1613;-63
2022/05/11 07:51:49;;;;;;;;;;;;;;;19.85;62.98;101300.41;7407943;19;1015;-56
2022/05/11 07:54:18;;;;;;;;;;;;;;;19.89;63.25;101292.97;7403981;19;1702;-62
2022/05/11 08:02:08;;;;;;;;;;;;;;;19.92;63.12;101306.16;7404551;19;1540;-63
2022/05/11 08:04:41;;;;;;;;;;;;;;;19.88;62.94;101293.97;7406370;19;1615;-56
2022/05/11 08:07:09;;;;;;;;;;;;;;;19.90;63.13;101275.91;7407230;19;1845;-63
2022/05/11 08:09:38;;;;;;;;;;;;;;;19.89;63.32;101287.59;7406378;19;1680;-56
2022/05/11 08:12:06;;;;;;;;;;;;;;;19.90;62.99;101294.69;7406349;19;1634;-63
2022/05/11 08:14:35;;;;;;;;;;;;;;;19.86;62.91;101302.97;7406834;19;1331;-63
2022/05/11 08:17:03;;;;;;;;;;;;;;;19.88;63.30;101296.66;7405511;19;1537;-57
2022/05/11 08:19:31;;;;;;;;;;;;;;;19.86;63.33;101297.63;7405089;19;1548;-62
2022/05/11 08:22:02;;;;;;;;;;;;;;;19.91;62.88;101294.53;7407555;19;959;-57
2022/05/11 08:24:31;;;;;;;;;;;;;;;19.89;63.29;101295.66;7405673;19;1691;-63
2022/05/11 08:26:59;;;;;;;;;;;;;;;19.92;63.08;101282.00;7405572;19;1245;-63
2022/05/11 08:34:50;;;;;;;;;;;;;;;19.95;62.52;101284.41;7404979;19;1544;-56
2022/05/11 08:37:21;;;;;;;;;;;;;;;19.93;62.94;101281.00;7403254;19;1791;-56
2022/05/11 08:39:51;;;;;;;;;;;;;;;19.96;62.78;101302.22;7404217;19;1506;-57
2022/05/11 08:42:19;;;;;;;;;;;;;;;19.94;63.00;101280.88;7405962;19;1688;-57
2022/05/11 08:44:50;;;;;;;;;;;;;;;19.93;63.02;101291.72;7404075;19;1805;-59
2022/05/11 08:47:25;;;;;;;;;;;;;;;20.03;62.95;101306.94;7405334;19;1871;-60
2022/05/11 08:49:54;;;;;;;;;;;;;;;19.98;62.80;101284.16;7404231;19;1746;-56
2022/05/11 08:52:36;;;;;;;;;;;;;;;20.02;63.09;101290.97;7404481;19;1488;-66
2022/05/11 08:55:10;;;;;;;;;;;;;;;20.02;63.27;101288.28;7405699;19;1241;-66
2022/05/11 08:57:39;;;;;;;;;;;;;;;20.02;63.25;101301.69;7404491;19;1290;-64
2022/05/11 09:00:10;;;;;;;;;;;;;;;20.14;63.96;101295.28;7405446;19;1671;-64
2022/05/11 09:02:47;;;;;;;;;;;;;;;20.11;63.61;101298.22;7402818;19;1656;-63
2022/05/11 09:05:16;;;;;;;;;;;;;;;20.01;63.61;101295.47;7403457;19;1486;-57
2022/05/11 09:07:49;;;;;;;;;;;;;;;20.00;63.51;101292.94;7402949;19;1849;-62
2022/05/11 09:10:24;;;;;;;;;;;;;;;19.93;63.94;101292.56;7402555;19;1574;-64
2022/05/11 09:12:56;;;;;;;;;;;;;;;19.95;63.42;101271.81;7403803;19;1592;-57
2022/05/11 09:15:25;;;;;;;;;;;;;;;19.91;63.82;101280.28;7405267;19;1516;-63
2022/05/11 09:18:06;;;;;;;;;;;;;;;19.87;63.53;101263.56;7404311;19;1795;-58
2022/05/11 09:20:36;;;;;;;;;;;;;;;19.88;64.04;101267.13;7402732;19;1373;-63
2022/05/11 09:23:08;;;;;;;;;;;;;;;19.83;63.88;101254.06;7402495;19;1589;-57
2022/05/11 09:25:38;;;;;;;;;;;;;;;19.86;63.89;101278.81;7404774;19;1603;-57
2022/05/11 09:28:17;;;;;;;;;;;;;;;19.81;63.66;101264.09;7403312;19;1868;-63
2022/05/11 09:30:58;;;;;;;;;;;;;;;19.81;63.93;101272.97;7404034;19;1536;-63
2022/05/11 09:33:27;;;;;;;;;;;;;;;19.80;63.74;101284.72;7403999;19;1773;-57
2022/05/11 09:35:56;;;;;;;;;;;;;;;19.84;63.76;101280.78;7403452;19;1604;-57
2022/05/11 09:38:46;;;;;;;;;;;;;;;19.79;63.94;101258.84;7403302;19;1445;-57
2022/05/11 09:41:24;;;;;;;;;;;;;;;19.82;64.16;101265.81;7402755;19;1786;-63
2022/05/11 09:43:53;;;;;;;;;;;;;;;19.76;63.69;101269.84;7403317;19;1675;-63
2022/05/11 09:46:24;;;;;;;;;;;;;;;19.72;63.96;101265.72;7403397;19;1623;-63
2022/05/11 09:49:02;;;;;;;;;;;;;;;19.71;64.02;101260.44;7408142;19;1840;-57
2022/05/11 09:51:35;;;;;;;;;;;;;;;19.70;64.23;101251.53;7412260;19;1862;-63
2022/05/11 09:54:08;;;;;;;;;;;;;;;19.72;63.99;101243.41;7407869;19;1730;-57
2022/05/11 09:56:39;;;;;;;;;;;;;;;19.67;64.30;101233.00;7411121;19;1607;-57
2022/05/11 09:59:25;;;;;;;;;;;;;;;19.74;63.94;101255.72;7411434;19;1533;-57
2022/05/11 10:01:57;;;;;;;;;;;;;;;19.71;64.02;101245.22;7407751;19;1536;-63
2022/05/11 10:04:33;;;;;;;;;;;;;;;19.69;64.30;101231.03;7409590;19;1528;-61
2022/05/11 10:07:02;;;;;;;;;;;;;;;19.70;64.15;101237.28;7411286;19;1630;-63
2022/05/11 10:09:34;;;;;;;;;;;;;;;19.70;64.05;101237.28;7406949;19;1867;-57
2022/05/11 10:12:07;;;;;;;;;;;;;;;19.68;64.04;101232.03;7410237;19;1614;-57
2022/05/11 10:22:44;;;;;;;;;;;;;;;19.69;64.43;101220.31;7411789;19;1545;-62
2022/05/11 10:25:19;;;;;;;;;;;;;;;19.70;64.21;101216.66;7409876;19;1532;-57
2022/05/11 10:27:54;;;;;;;;;;;;;;;19.71;63.73;101207.66;7410185;19;1852;-57
2022/05/11 10:30:24;;;;;;;;;;;;;;;19.72;63.85;101219.25;7409830;19;1603;-58
2022/05/11 10:33:08;;;;;;;;;;;;;;;19.71;63.82;101218.38;7410087;19;1674;-61
2022/05/11 10:35:41;;;;;;;;;;;;;;;19.72;64.29;101204.00;7410359;19;2208;-64
2022/05/11 10:38:27;;;;;;;;;;;;;;;19.76;64.26;101215.34;7408035;19;1722;-57
2022/05/11 10:41:01;;;;;;;;;;;;;;;19.75;63.65;101203.72;7409003;19;1635;-64
2022/05/11 10:43:45;;;;;;;;;;;;;;;19.78;63.71;101221.41;7409251;19;1533;-64
2022/05/11 10:46:18;;;;;;;;;;;;;;;19.72;64.15;101190.59;7408911;19;1370;-65
2022/05/11 10:49:03;;;;;;;;;;;;;;;19.75;63.65;101187.63;7407958;19;1855;-57
2022/05/11 10:51:38;;;;;;;;;;;;;;;19.73;64.10;101181.53;7410040;19;1153;-57
2022/05/11 10:54:13;;;;;;;;;;;;;;;19.73;63.62;101183.38;7406408;19;1757;-65
2022/05/11 10:56:48;;;;;;;;;;;;;;;19.76;63.98;101196.56;7408257;19;1481;-57
2022/05/11 10:59:28;;;;;;;;;;;;;;;19.79;64.03;101183.69;7405312;19;1458;-61
2022/05/11 11:02:04;;;;;;;;;;;;;;;19.84;63.79;101192.22;7405730;19;1525;-69
2022/05/11 11:04:44;;;;;;;;;;;;;;;19.83;64.17;101187.81;7407572;19;1513;-65
2022/05/11 11:07:20;;;;;;;;;;;;;;;19.81;64.15;101184.41;7408393;19;1423;-65
2022/05/11 11:09:56;;;;;;;;;;;;;;;19.80;64.26;101184.56;7406233;19;1896;-57
2022/05/11 11:12:39;;;;;;;;;;;;;;;19.80;63.83;101185.41;7407960;19;1769;-57
2022/05/11 11:15:13;;;;;;;;;;;;;;;19.78;63.74;101187.38;7408748;19;1766;-57
2022/05/11 11:17:43;;;;;;;;;;;;;;;19.82;63.88;101190.66;7406546;19;1726;-65
2022/05/11 11:20:13;;;;;;;;;;;;;;;19.78;63.70;101181.16;7407510;19;1394;-65
2022/05/11 11:22:56;;;;;;;;;;;;;;;19.75;63.87;101173.38;7408953;19;1406;-65
2022/05/11 11:25:25;;;;;;;;;;;;;;;19.80;63.95;101190.78;7407716;19;1611;-68
2022/05/11 11:28:03;;;;;;;;;;;;;;;19.86;64.01;101162.56;7406930;19;1506;-65
2022/05/11 11:30:34;;;;;;;;;;;;;;;19.85;64.31;101150.97;7406863;19;1537;-70
2022/05/11 11:33:21;;;;;;;;;;;;;;;19.88;64.07;101187.44;7408728;19;1553;-67
2022/05/11 11:36:00;;;;;;;;;;;;;;;20.00;63.56;101158.72;7406558;19;1649;-56
2022/05/11 11:38:31;;;;;;;;;;;;;;;19.92;64.17;101171.94;7404690;19;1612;-64
2022/05/11 11:41:14;;;;;;;;;;;;;;;19.94;64.02;101173.50;7406355;19;1558;-65
2022/05/11 11:43:48;;;;;;;;;;;;;;;19.93;63.84;101187.03;7405945;19;1438;-69
2022/05/11 11:46:31;;;;;;;;;;;;;;;19.96;64.34;101173.38;7408026;19;1411;-67
2022/05/11 11:49:07;;;;;;;;;;;;;;;19.92;64.29;101163.88;7404825;19;1854;-55
2022/05/11 11:51:53;;;;;;;;;;;;;;;20.03;63.84;101148.56;7407229;19;1467;-67
2022/05/11 11:54:31;;;;;;;;;;;;;;;19.95;64.46;101163.59;7404691;19;1541;-56
2022/05/11 11:57:01;;;;;;;;;;;;;;;20.02;64.10;101149.53;7406779;19;1430;-60
2022/05/11 11:59:37;;;;;;;;;;;;;;;19.99;64.13;101138.19;7406737;19;1493;-57
2022/05/11 12:02:24;;;;;;;;;;;;;;;19.93;64.36;101152.16;7403641;19;1430;-57
2022/05/11 12:05:08;;;;;;;;;;;;;;;19.87;64.16;101137.41;7405266;19;1538;-63
2022/05/11 12:15:46;;;;;;;;;;;;;;;19.93;64.87;101136.03;7405967;19;1430;-58
2022/05/11 12:18:25;;;;;;;;;;;;;;;20.01;64.47;101144.28;7405589;19;1634;-64
2022/05/11 12:20:54;;;;;;;;;;;;;;;19.91;64.13;101138.84;7406017;19;1516;-59
2022/05/11 12:23:28;;;;;;;;;;;;;;;19.84;64.70;101141.22;7404280;19;1525;-63
2022/05/11 12:25:58;;;;;;;;;;;;;;;19.90;64.54;101147.06;7404736;19;1430;-61
2022/05/11 12:28:29;;;;;;;;;;;;;;;19.85;64.55;101158.19;7404840;19;1861;-60
2022/05/11 12:30:58;;;;;;;;;;;;;;;19.82;64.42;101131.63;7404119;19;1758;-57
2022/05/11 12:33:28;;;;;;;;;;;;;;;19.81;64.28;101121.84;7403602;19;1577;-64
2022/05/11 12:35:56;;;;;;;;;;;;;;;19.88;64.81;101127.56;7405950;19;1548;-64
2022/05/11 12:38:32;;;;;;;;;;;;;;;19.82;64.46;101135.16;7403579;19;1718;-59
2022/05/11 12:41:01;;;;;;;;;;;;;;;19.86;64.64;101130.38;7403905;19;1266;-64
2022/05/11 12:43:31;;;;;;;;;;;;;;;20.06;64.54;101129.47;7404304;19;1805;-55
2022/05/11 12:46:00;;;;;;;;;;;;;;;20.00;64.54;101121.13;7404744;19;1466;-62
2022/05/11 12:48:32;;;;;;;;;;;;;;;19.98;65.03;101115.03;7404603;19;1869;-62
2022/05/11 12:51:04;;;;;;;;;;;;;;;19.83;65.41;101115.34;7404930;19;1533;-57
2022/05/11 12:53:36;;;;;;;;;;;;;;;19.79;65.58;101108.56;7401837;19;1393;-58
2022/05/11 12:56:15;;;;;;;;;;;;;;;19.77;65.25;101089.06;7403318;19;1587;-57
2022/05/11 12:58:45;;;;;;;;;;;;;;;19.72;64.80;101085.09;7404087;19;1711;-63
2022/05/11 13:01:14;;;;;;;;;;;;;;;19.70;65.42;101092.41;7402923;19;1465;-62
2022/05/11 13:03:43;;;;;;;;;;;;;;;19.68;65.14;101079.94;7404792;19;1300;-57
2022/05/11 13:06:17;;;;;;;;;;;;;;;19.66;65.08;101091.81;7404666;19;1671;-57
2022/05/11 13:08:49;;;;;;;;;;;;;;;19.70;64.95;101090.56;7403976;19;1851;-59
2022/05/11 13:11:20;;;;;;;;;;;;;;;19.67;65.43;101077.38;7404830;19;1599;-57
2022/05/11 13:13:51;;;;;;;;;;;;;;;19.62;65.43;101071.59;7404006;19;1528;-60
2022/05/11 13:16:21;;;;;;;;;;;;;;;19.63;65.38;101084.00;7403543;19;1301;-57
2022/05/11 13:18:49;;;;;;;;;;;;;;;19.63;65.28;101081.31;7404920;19;1325;-57
2022/05/11 13:21:27;;;;;;;;;;;;;;;19.62;65.00;101072.44;7404823;19;1545;-57
2022/05/11 13:23:58;;;;;;;;;;;;;;;19.64;65.19;101066.94;7410873;19;1584;-62
2022/05/11 13:26:34;;;;;;;;;;;;;;;19.62;65.21;101063.53;7412117;19;1631;-62
2022/05/11 13:29:11;;;;;;;;;;;;;;;19.67;65.38;101082.75;7411081;19;1826;-57
2022/05/11 13:31:39;;;;;;;;;;;;;;;19.63;65.12;101065.22;7410062;19;1750;-62
2022/05/11 13:34:08;;;;;;;;;;;;;;;19.61;65.05;101067.19;7410568;19;1529;-57
2022/05/11 13:36:43;;;;;;;;;;;;;;;19.59;65.17;101066.47;7413424;19;1003;-62
2022/05/11 13:39:29;;;;;;;;;;;;;;;19.58;65.29;101048.69;7411647;19;1750;-57
2022/05/11 13:41:59;;;;;;;;;;;;;;;19.58;65.28;101062.94;7411688;19;1732;-57
2022/05/11 13:44:30;;;;;;;;;;;;;;;19.60;65.33;101066.34;7411071;19;1702;-57
2022/05/11 13:49:41;;;;;;;;;;;;;;;19.57;65.51;101066.59;7410419;19;1861;-58
2022/05/11 13:52:11;;;;;;;;;;;;;;;19.58;65.17;101059.44;7410849;19;1813;-62
2022/05/11 13:54:56;;;;;;;;;;;;;;;19.59;65.28;101048.53;7407835;19;1385;-57
2022/05/11 13:57:29;;;;;;;;;;;;;;;19.59;64.96;101063.78;7410440;19;1750;-63
2022/05/11 13:59:58;;;;;;;;;;;;;;;19.55;64.81;101052.47;7410069;19;1750;-57